createdAt,value
2023-01-18T00:00:35.264Z,90.55
2023-01-18T00:03:02.105Z,90.77
2023-01-18T00:05:28.953Z,90.76
2023-01-18T00:07:55.919Z,90.77
2023-01-18T00:10:22.938Z,91.11
2023-01-18T00:12:49.928Z,91.17
2023-01-18T00:15:17.050Z,91.19
2023-01-18T00:17:53.185Z,91.23
2023-01-18T00:20:21.747Z,91.16
2023-01-18T00:22:49.126Z,91.03
2023-01-18T00:25:16.043Z,91.20
2023-01-18T00:27:50.579Z,91.29
2023-01-18T00:30:19.043Z,91.45
2023-01-18T00:32:45.828Z,91.41
2023-01-18T00:35:13.177Z,91.50
2023-01-18T00:37:40.057Z,91.59
2023-01-18T00:40:08.840Z,91.56
2023-01-18T00:42:54.645Z,91.63
2023-01-18T00:45:21.707Z,91.74
2023-01-18T00:47:48.483Z,91.84
2023-01-18T00:50:15.397Z,92.04
2023-01-18T00:52:46.360Z,92.25
2023-01-18T00:55:14.072Z,92.33
2023-01-18T00:57:41.022Z,92.65
2023-01-18T01:00:12.149Z,92.75
2023-01-18T01:02:41.930Z,92.94
2023-01-18T01:05:36.797Z,93.07
2023-01-18T01:08:03.844Z,93.18
2023-01-18T01:10:30.682Z,93.25
2023-01-18T01:13:16.175Z,93.47
2023-01-18T01:16:01.672Z,93.60
2023-01-18T01:18:47.353Z,93.52
2023-01-18T01:21:32.865Z,93.69
2023-01-18T01:24:18.375Z,93.79
2023-01-18T01:26:45.217Z,93.72
2023-01-18T01:29:12.214Z,93.60
2023-01-18T01:31:39.457Z,93.53
2023-01-18T01:34:06.410Z,93.48
2023-01-18T01:36:33.272Z,93.47
2023-01-18T01:39:00.141Z,93.44
2023-01-18T01:41:28.580Z,93.47
2023-01-18T01:43:59.579Z,93.35
2023-01-18T01:46:29.523Z,93.35
2023-01-18T01:49:01.516Z,93.27
2023-01-18T01:51:28.304Z,93.22
2023-01-18T01:53:55.033Z,93.18
2023-01-18T01:56:21.804Z,92.98
2023-01-18T01:58:48.659Z,93.11
2023-01-18T02:01:15.619Z,93.21
2023-01-18T02:03:42.742Z,93.22
2023-01-18T02:06:31.857Z,93.30
2023-01-18T02:09:00.311Z,93.29
2023-01-18T02:11:27.228Z,93.35
2023-01-18T02:13:54.774Z,93.27
2023-01-18T02:16:30.317Z,93.19
2023-01-18T02:19:25.417Z,93.19
2023-01-18T02:22:00.115Z,93.26
2023-01-18T02:24:46.734Z,93.32
2023-01-18T02:27:22.446Z,93.37
2023-01-18T02:30:01.925Z,93.65
2023-01-18T02:32:53.952Z,93.73
2023-01-18T02:35:26.573Z,93.99
2023-01-18T02:38:17.173Z,93.97
2023-01-18T02:41:18.014Z,94.00
2023-01-18T02:44:03.928Z,94.08
2023-01-18T02:46:30.821Z,93.98
2023-01-18T02:48:58.163Z,94.10
2023-01-18T02:51:25.363Z,94.01
2023-01-18T02:53:52.266Z,94.16
2023-01-18T02:56:23.732Z,94.35
2023-01-18T02:59:02.063Z,94.47
2023-01-18T03:01:51.035Z,94.37
2023-01-18T03:04:54.439Z,94.58
2023-01-18T03:07:48.708Z,94.38
2023-01-18T03:10:15.665Z,94.69
2023-01-18T03:12:46.895Z,94.83
2023-01-18T03:15:19.364Z,95.01
2023-01-18T03:17:57.495Z,95.17
2023-01-18T03:20:28.480Z,95.36
2023-01-18T03:23:18.797Z,95.64
2023-01-18T03:25:47.126Z,96.05
2023-01-18T03:28:39.869Z,96.24
2023-01-18T03:31:28.436Z,96.60
2023-01-18T03:33:59.187Z,96.87
2023-01-18T03:36:27.906Z,97.10
2023-01-18T03:38:57.900Z,97.28
2023-01-18T03:41:28.212Z,97.51
2023-01-18T03:43:56.151Z,97.52
2023-01-18T03:46:22.936Z,97.78
2023-01-18T03:48:49.748Z,97.70
2023-01-18T03:51:22.837Z,97.79
2023-01-18T03:54:09.665Z,97.73
2023-01-18T03:56:42.470Z,97.71
2023-01-18T03:59:09.287Z,97.84
2023-01-18T04:01:36.243Z,97.76
2023-01-18T08:04:52.417Z,88.86
2023-01-18T08:21:11.871Z,87.28
2023-01-18T08:23:39.511Z,86.74
2023-01-18T08:26:06.736Z,86.50
2023-01-18T08:28:33.583Z,86.47
2023-01-18T08:31:12.111Z,86.31
2023-01-18T08:33:40.568Z,86.20
2023-01-18T08:36:11.933Z,86.35
2023-01-18T08:38:39.045Z,86.26
2023-01-18T08:41:06.013Z,86.09
2023-01-18T08:43:33.059Z,85.98
2023-01-18T08:45:59.834Z,86.14
2023-01-18T08:48:26.598Z,86.13
2023-01-18T08:50:53.454Z,86.05
2023-01-18T08:53:20.442Z,85.98
2023-01-18T08:55:47.356Z,85.97
2023-01-18T08:58:14.175Z,86.05
2023-01-18T09:00:41.174Z,86.20
2023-01-18T09:03:08.100Z,86.22
2023-01-18T09:05:35.859Z,86.13
2023-01-18T09:08:02.941Z,86.12
2023-01-18T09:10:29.701Z,86.16
2023-01-18T09:12:57.211Z,86.06
2023-01-18T09:15:24.439Z,86.15
2023-01-18T09:17:51.318Z,85.99
2023-01-18T09:20:19.145Z,85.96
2023-01-18T09:22:47.985Z,85.70
2023-01-18T09:25:15.008Z,85.64
2023-01-18T09:27:42.454Z,85.46
2023-01-18T09:30:09.894Z,85.18
2023-01-18T09:32:36.755Z,84.79
2023-01-18T09:35:03.769Z,84.85
2023-01-18T09:37:31.623Z,84.59
2023-01-18T09:40:00.507Z,84.67
2023-01-18T09:42:30.764Z,84.44
2023-01-18T09:44:59.163Z,84.08
2023-01-18T09:47:29.094Z,84.19
2023-01-18T09:50:02.368Z,83.95
2023-01-18T09:52:38.476Z,84.01
2023-01-18T09:55:28.822Z,83.98
2023-01-18T09:58:11.205Z,84.17
2023-01-18T10:00:41.945Z,83.95
2023-01-18T14:16:16.008Z,81.97
2023-01-18T14:18:49.197Z,81.13
2023-01-18T14:21:37.745Z,80.56
2023-01-18T14:24:24.703Z,80.36
2023-01-18T14:26:53.047Z,80.30
2023-01-18T14:29:20.551Z,80.29
2023-01-18T14:31:52.890Z,80.14
2023-01-18T14:34:23.236Z,80.11
2023-01-18T14:36:50.187Z,80.24
2023-01-18T14:39:18.031Z,80.17
2023-01-18T14:41:46.183Z,80.14
2023-01-18T14:44:56.374Z,80.24
2023-01-18T14:47:24.784Z,80.08
2023-01-18T14:49:51.707Z,80.20
2023-01-18T14:52:18.560Z,80.05
2023-01-18T14:54:52.679Z,80.12
2023-01-18T14:57:21.137Z,80.12
2023-01-18T15:00:17.434Z,80.15
2023-01-18T15:02:44.584Z,80.20
2023-01-18T15:05:17.035Z,80.10
2023-01-18T15:07:46.089Z,80.18
2023-01-18T15:10:16.703Z,80.13
2023-01-18T15:12:43.520Z,80.05
2023-01-18T15:15:34.236Z,80.02
2023-01-18T15:18:04.908Z,80.04
2023-01-18T15:20:32.451Z,80.13
2023-01-18T15:22:59.584Z,80.03
2023-01-18T15:25:28.663Z,80.02
2023-01-18T15:27:58.239Z,79.97
2023-01-18T15:30:25.228Z,80.02
2023-01-18T15:32:56.459Z,79.99
2023-01-18T15:35:25.468Z,79.96
2023-01-18T15:37:52.349Z,79.92
2023-01-18T15:40:19.077Z,79.94
2023-01-18T15:42:45.810Z,79.95
2023-01-18T15:45:24.551Z,80.03
2023-01-18T15:48:02.687Z,79.93
2023-01-18T15:51:06.311Z,79.93
2023-01-18T15:53:34.188Z,79.88
2023-01-18T15:56:03.449Z,79.96
2023-01-18T15:58:39.995Z,79.99
2023-01-18T16:01:18.145Z,79.96
2023-01-18T20:16:59.313Z,86.98
2023-01-18T20:19:26.232Z,86.20
2023-01-18T20:21:53.075Z,85.94
2023-01-18T20:24:19.915Z,85.53
2023-01-18T20:26:46.867Z,85.39
2023-01-18T20:29:13.698Z,85.35
2023-01-18T20:31:42.005Z,85.40
2023-01-18T20:34:10.011Z,85.34
2023-01-18T20:36:37.659Z,85.21
2023-01-18T20:39:05.369Z,85.36
2023-01-18T20:41:32.302Z,85.45
2023-01-18T20:43:59.248Z,85.41
2023-01-18T20:46:26.493Z,85.47
2023-01-18T20:48:53.298Z,85.39
2023-01-18T20:51:20.261Z,85.42
2023-01-18T20:53:47.102Z,85.36
2023-01-18T20:56:28.325Z,85.37
2023-01-18T20:58:56.224Z,85.00
2023-01-18T21:01:23.135Z,84.86
2023-01-18T21:03:54.317Z,84.86
2023-01-18T21:06:21.218Z,84.85
2023-01-18T21:08:48.051Z,85.02
2023-01-18T21:11:15.988Z,85.01
2023-01-18T21:13:42.757Z,85.05
2023-01-18T21:16:09.692Z,85.13
2023-01-18T21:18:37.794Z,85.18
2023-01-18T21:21:05.143Z,85.31
2023-01-18T21:23:39.528Z,85.49
2023-01-18T21:26:07.891Z,85.65
2023-01-18T21:28:34.775Z,85.62
2023-01-18T21:31:01.637Z,85.72
2023-01-18T21:33:28.411Z,85.72
2023-01-18T21:35:55.151Z,85.82
2023-01-18T21:38:23.209Z,85.92
2023-01-18T21:40:50.016Z,86.15
2023-01-18T21:43:37.743Z,86.22
2023-01-18T21:46:05.886Z,86.30
2023-01-18T21:48:32.739Z,86.23
2023-01-18T21:51:19.707Z,86.40
2023-01-18T21:54:05.351Z,86.31
2023-01-18T21:56:32.296Z,86.16
2023-01-18T21:59:01.021Z,86.20
2023-01-18T22:01:34.031Z,86.14
2023-01-18T22:04:20.992Z,86.04
2023-01-18T22:06:48.193Z,85.97
2023-01-18T22:09:15.393Z,86.14
2023-01-18T22:11:42.312Z,86.15
2023-01-18T22:14:09.288Z,86.27
2023-01-18T22:16:36.473Z,86.24
2023-01-18T22:19:05.131Z,86.10
2023-01-18T22:21:32.238Z,86.03
2023-01-18T22:23:59.182Z,86.06
2023-01-18T22:26:26.949Z,85.80
2023-01-18T22:28:53.749Z,85.66
2023-01-18T22:31:20.740Z,85.47
2023-01-18T22:33:48.404Z,85.43
2023-01-18T22:36:16.032Z,85.45
2023-01-18T22:38:42.860Z,85.33
2023-01-18T22:41:15.478Z,85.23
2023-01-18T22:43:42.543Z,85.05
2023-01-18T22:46:12.253Z,84.82
2023-01-18T22:48:39.204Z,84.47
2023-01-18T22:51:07.486Z,84.19
2023-01-18T22:53:34.896Z,83.84
2023-01-18T22:56:12.322Z,83.51
2023-01-18T22:58:39.166Z,83.28
2023-01-18T23:01:38.604Z,82.95
2023-01-18T23:04:05.452Z,82.64
2023-01-18T23:06:48.177Z,82.46
2023-01-18T23:09:16.004Z,82.12
2023-01-18T23:11:43.145Z,81.97
2023-01-18T23:14:28.701Z,81.76
2023-01-18T23:17:14.262Z,81.59
2023-01-18T23:19:41.156Z,81.25
2023-01-18T23:22:07.995Z,81.09
2023-01-18T23:24:35.962Z,81.17
2023-01-18T23:27:03.836Z,81.11
2023-01-18T23:29:30.622Z,81.26
2023-01-18T23:31:58.242Z,81.38
2023-01-18T23:34:25.483Z,81.41
2023-01-18T23:36:52.841Z,81.21
2023-01-18T23:39:38.463Z,81.14
2023-01-18T23:42:24.120Z,81.10
2023-01-18T23:45:09.569Z,80.83
2023-01-18T23:47:55.199Z,80.95
2023-01-18T23:50:40.634Z,80.55
2023-01-18T23:53:30.203Z,80.44
2023-01-18T23:55:57.066Z,80.34
2023-01-18T23:58:24.052Z,80.45
